sensor_id;sensor_type;location;lat;lon;timestamp;pressure;altitude;pressure_sealevel;temperature;humidity
6464;BME280;3265;42.694;23.282;2023-05-20T00:01:08;72675.06;;;-143.21;90.78
6464;BME280;3265;42.694;23.282;2023-05-20T00:03:35;72679.03;;;-143.21;90.50
6464;BME280;3265;42.694;23.282;2023-05-20T00:06:02;72673.09;;;-143.21;90.32
6464;BME280;3265;42.694;23.282;2023-05-20T00:08:30;72669.13;;;-143.21;89.78
6464;BME280;3265;42.694;23.282;2023-05-20T00:10:57;72663.16;;;-143.21;89.19
6464;BME280;3265;42.694;23.282;2023-05-20T00:13:24;72659.19;;;-143.21;89.01
6464;BME280;3265;42.694;23.282;2023-05-20T00:15:51;72655.25;;;-143.21;88.95
6464;BME280;3265;42.694;23.282;2023-05-20T00:18:18;72655.25;;;-143.21;88.74
6464;BME280;3265;42.694;23.282;2023-05-20T00:20:45;72657.22;;;-143.21;88.23
6464;BME280;3265;42.694;23.282;2023-05-20T00:23:12;72659.19;;;-143.21;88.25
6464;BME280;3265;42.694;23.282;2023-05-20T00:25:40;72665.16;;;-143.21;88.54
6464;BME280;3265;42.694;23.282;2023-05-20T00:28:07;72667.13;;;-143.21;88.47
6464;BME280;3265;42.694;23.282;2023-05-20T00:30:34;72669.13;;;-143.21;88.79
6464;BME280;3265;42.694;23.282;2023-05-20T00:33:00;72663.16;;;-143.21;89.09
6464;BME280;3265;42.694;23.282;2023-05-20T00:35:27;72661.19;;;-143.21;89.08
6464;BME280;3265;42.694;23.282;2023-05-20T00:37:54;72667.13;;;-143.21;89.05
6464;BME280;3265;42.694;23.282;2023-05-20T00:40:21;72673.09;;;-143.21;88.61
6464;BME280;3265;42.694;23.282;2023-05-20T00:42:50;72669.13;;;-143.21;88.71
6464;BME280;3265;42.694;23.282;2023-05-20T00:45:17;72669.13;;;-143.21;88.85
6464;BME280;3265;42.694;23.282;2023-05-20T00:47:44;72665.16;;;-143.21;88.69
6464;BME280;3265;42.694;23.282;2023-05-20T00:50:11;72659.19;;;-143.21;88.62
6464;BME280;3265;42.694;23.282;2023-05-20T00:52:38;72661.19;;;-143.21;88.25
6464;BME280;3265;42.694;23.282;2023-05-20T00:55:06;72667.13;;;-143.21;87.90
6464;BME280;3265;42.694;23.282;2023-05-20T00:57:33;72667.13;;;-143.21;88.08
6464;BME280;3265;42.694;23.282;2023-05-20T01:00:01;72673.09;;;-143.21;88.82
6464;BME280;3265;42.694;23.282;2023-05-20T01:02:28;72702.84;;;-143.21;88.87
6464;BME280;3265;42.694;23.282;2023-05-20T01:04:56;72720.69;;;-143.21;89.12
6464;BME280;3265;42.694;23.282;2023-05-20T01:07:23;72740.53;;;-143.21;90.45
6464;BME280;3265;42.694;23.282;2023-05-20T01:09:50;72754.41;;;-143.21;92.09
6464;BME280;3265;42.694;23.282;2023-05-20T01:12:22;72748.47;;;-143.21;93.01
6464;BME280;3265;42.694;23.282;2023-05-20T01:14:52;72742.50;;;-143.21;92.97
6464;BME280;3265;42.694;23.282;2023-05-20T01:17:22;72724.66;;;-143.21;92.92
6464;BME280;3265;42.694;23.282;2023-05-20T01:19:53;72718.69;;;-143.21;92.43
6464;BME280;3265;42.694;23.282;2023-05-20T01:22:24;72716.72;;;-143.21;92.13
6464;BME280;3265;42.694;23.282;2023-05-20T01:24:51;72718.69;;;-143.21;91.55
6464;BME280;3265;42.694;23.282;2023-05-20T01:27:20;72716.72;;;-143.21;91.45
6464;BME280;3265;42.694;23.282;2023-05-20T01:29:48;72712.75;;;-143.21;91.38
6464;BME280;3265;42.694;23.282;2023-05-20T01:32:19;72708.78;;;-143.21;90.86
6464;BME280;3265;42.694;23.282;2023-05-20T01:34:49;72694.91;;;-143.21;90.25
6464;BME280;3265;42.694;23.282;2023-05-20T01:37:17;72698.88;;;-143.21;90.11
6464;BME280;3265;42.694;23.282;2023-05-20T01:39:48;72688.94;;;-143.21;89.74
6464;BME280;3265;42.694;23.282;2023-05-20T01:42:16;72692.91;;;-143.21;89.45
6464;BME280;3265;42.694;23.282;2023-05-20T01:44:43;72706.81;;;-143.21;89.06
6464;BME280;3265;42.694;23.282;2023-05-20T01:47:10;72700.84;;;-143.21;89.24
6464;BME280;3265;42.694;23.282;2023-05-20T01:49:37;72708.78;;;-143.21;89.36
6464;BME280;3265;42.694;23.282;2023-05-20T01:52:04;72704.81;;;-143.21;89.53
6464;BME280;3265;42.694;23.282;2023-05-20T01:54:31;72704.81;;;-143.21;89.76
6464;BME280;3265;42.694;23.282;2023-05-20T01:56:59;72716.72;;;-143.21;90.03
6464;BME280;3265;42.694;23.282;2023-05-20T01:59:27;72708.78;;;-143.21;90.05
6464;BME280;3265;42.694;23.282;2023-05-20T02:01:54;72712.75;;;-143.21;89.69
6464;BME280;3265;42.694;23.282;2023-05-20T02:04:20;72708.78;;;-143.21;89.58
6464;BME280;3265;42.694;23.282;2023-05-20T02:06:47;72712.75;;;-143.21;89.48
6464;BME280;3265;42.694;23.282;2023-05-20T02:09:14;72710.78;;;-143.21;89.06
6464;BME280;3265;42.694;23.282;2023-05-20T02:11:41;72716.72;;;-143.21;89.52
6464;BME280;3265;42.694;23.282;2023-05-20T02:14:09;72714.72;;;-143.21;89.65
6464;BME280;3265;42.694;23.282;2023-05-20T02:16:36;72712.75;;;-143.21;89.66
6464;BME280;3265;42.694;23.282;2023-05-20T02:19:03;72712.75;;;-143.21;89.24
6464;BME280;3265;42.694;23.282;2023-05-20T02:21:29;72720.69;;;-143.21;89.63
6464;BME280;3265;42.694;23.282;2023-05-20T02:23:56;72724.66;;;-143.21;90.00
6464;BME280;3265;42.694;23.282;2023-05-20T02:26:23;72724.66;;;-143.21;90.41
6464;BME280;3265;42.694;23.282;2023-05-20T02:28:50;72720.69;;;-143.21;90.00
6464;BME280;3265;42.694;23.282;2023-05-20T02:31:18;72728.63;;;-143.21;90.42
6464;BME280;3265;42.694;23.282;2023-05-20T02:33:45;72754.41;;;-143.21;89.79
6464;BME280;3265;42.694;23.282;2023-05-20T02:36:13;72796.06;;;-143.21;90.23
6464;BME280;3265;42.694;23.282;2023-05-20T02:38:41;72823.81;;;-143.21;92.08
6464;BME280;3265;42.694;23.282;2023-05-20T02:41:08;72819.84;;;-143.21;93.16
6464;BME280;3265;42.694;23.282;2023-05-20T02:43:35;72815.88;;;-143.21;93.99
6464;BME280;3265;42.694;23.282;2023-05-20T02:46:02;72807.97;;;-143.21;94.39
6464;BME280;3265;42.694;23.282;2023-05-20T02:48:30;72798.03;;;-143.21;93.94
6464;BME280;3265;42.694;23.282;2023-05-20T02:50:58;72784.16;;;-143.21;93.20
6464;BME280;3265;42.694;23.282;2023-05-20T02:53:24;72776.22;;;-143.21;92.94
6464;BME280;3265;42.694;23.282;2023-05-20T02:55:51;72780.19;;;-143.21;92.68
6464;BME280;3265;42.694;23.282;2023-05-20T02:58:18;72782.16;;;-143.21;92.86
6464;BME280;3265;42.694;23.282;2023-05-20T03:00:50;72776.22;;;-143.21;93.01
6464;BME280;3265;42.694;23.282;2023-05-20T03:03:17;72772.25;;;-143.21;92.29
6464;BME280;3265;42.694;23.282;2023-05-20T03:05:45;72790.09;;;-143.21;92.30
6464;BME280;3265;42.694;23.282;2023-05-20T03:08:12;72786.13;;;-143.21;92.83
6464;BME280;3265;42.694;23.282;2023-05-20T03:10:39;72780.19;;;-143.21;92.31
6464;BME280;3265;42.694;23.282;2023-05-20T03:13:07;72788.13;;;-143.21;92.21
6464;BME280;3265;42.694;23.282;2023-05-20T03:15:35;72790.09;;;-143.21;91.66
6464;BME280;3265;42.694;23.282;2023-05-20T03:18:02;72796.06;;;-143.21;91.78
6464;BME280;3265;42.694;23.282;2023-05-20T03:20:29;72796.06;;;-143.21;91.63
6464;BME280;3265;42.694;23.282;2023-05-20T03:22:58;72790.09;;;-143.21;90.62
6464;BME280;3265;42.694;23.282;2023-05-20T03:25:25;72792.09;;;-143.21;90.85
6464;BME280;3265;42.694;23.282;2023-05-20T03:27:52;72792.09;;;-143.21;91.00
6464;BME280;3265;42.694;23.282;2023-05-20T03:30:19;72784.16;;;-143.21;90.89
6464;BME280;3265;42.694;23.282;2023-05-20T03:32:46;72782.16;;;-143.21;91.33
6464;BME280;3265;42.694;23.282;2023-05-20T03:35:12;72780.19;;;-143.21;91.51
6464;BME280;3265;42.694;23.282;2023-05-20T03:37:39;72774.25;;;-143.21;91.34
6464;BME280;3265;42.694;23.282;2023-05-20T03:40:08;72776.22;;;-143.21;91.20
6464;BME280;3265;42.694;23.282;2023-05-20T03:42:36;72778.22;;;-143.21;91.08
6464;BME280;3265;42.694;23.282;2023-05-20T03:45:03;72778.22;;;-143.21;90.67
6464;BME280;3265;42.694;23.282;2023-05-20T03:47:30;72780.19;;;-143.21;90.63
6464;BME280;3265;42.694;23.282;2023-05-20T03:49:57;72784.16;;;-143.21;90.66
6464;BME280;3265;42.694;23.282;2023-05-20T03:52:24;72786.13;;;-143.21;90.68
6464;BME280;3265;42.694;23.282;2023-05-20T03:54:50;72778.22;;;-143.21;90.17
6464;BME280;3265;42.694;23.282;2023-05-20T03:57:19;72784.16;;;-143.21;90.88
6464;BME280;3265;42.694;23.282;2023-05-20T03:59:46;72819.84;;;-143.21;90.78
6464;BME280;3265;42.694;23.282;2023-05-20T04:02:12;72851.59;;;-143.21;90.92
6464;BME280;3265;42.694;23.282;2023-05-20T04:04:39;72875.41;;;-143.21;92.89
6464;BME280;3265;42.694;23.282;2023-05-20T04:07:07;72871.44;;;-143.21;94.86
6464;BME280;3265;42.694;23.282;2023-05-20T04:09:34;72857.53;;;-143.21;94.86
6464;BME280;3265;42.694;23.282;2023-05-20T04:12:01;72849.59;;;-143.21;94.73
6464;BME280;3265;42.694;23.282;2023-05-20T04:14:29;72835.72;;;-143.21;94.91
6464;BME280;3265;42.694;23.282;2023-05-20T04:16:58;72829.78;;;-143.21;94.83
6464;BME280;3265;42.694;23.282;2023-05-20T04:19:25;72811.94;;;-143.21;93.96
6464;BME280;3265;42.694;23.282;2023-05-20T04:21:52;72802.00;;;-143.21;94.03
6464;BME280;3265;42.694;23.282;2023-05-20T04:24:20;72798.03;;;-143.21;94.20
6464;BME280;3265;42.694;23.282;2023-05-20T04:26:49;72790.09;;;-143.21;94.07
6464;BME280;3265;42.694;23.282;2023-05-20T04:29:16;72778.22;;;-143.21;94.19
6464;BME280;3265;42.694;23.282;2023-05-20T04:31:45;72772.25;;;-143.21;94.41
6464;BME280;3265;42.694;23.282;2023-05-20T04:34:12;72764.31;;;-143.21;93.57
6464;BME280;3265;42.694;23.282;2023-05-20T04:36:39;72758.38;;;-143.21;93.12
6464;BME280;3265;42.694;23.282;2023-05-20T04:39:06;72746.47;;;-143.21;92.65
6464;BME280;3265;42.694;23.282;2023-05-20T04:41:33;72744.50;;;-143.21;92.51
6464;BME280;3265;42.694;23.282;2023-05-20T04:44:00;72738.53;;;-143.21;92.56
6464;BME280;3265;42.694;23.282;2023-05-20T04:46:28;72734.56;;;-143.21;92.53
6464;BME280;3265;42.694;23.282;2023-05-20T04:48:57;72730.59;;;-143.21;92.50
6464;BME280;3265;42.694;23.282;2023-05-20T04:51:24;72720.69;;;-143.21;92.16
6464;BME280;3265;42.694;23.282;2023-05-20T04:53:51;72716.72;;;-143.21;92.28
6464;BME280;3265;42.694;23.282;2023-05-20T04:56:17;72714.72;;;-143.21;92.40
6464;BME280;3265;42.694;23.282;2023-05-20T04:58:45;72708.78;;;-143.21;92.69
6464;BME280;3265;42.694;23.282;2023-05-20T05:01:11;72704.81;;;-143.21;93.15
6464;BME280;3265;42.694;23.282;2023-05-20T05:03:38;72696.88;;;-143.21;92.74
6464;BME280;3265;42.694;23.282;2023-05-20T05:06:06;72688.94;;;-143.21;92.30
6464;BME280;3265;42.694;23.282;2023-05-20T05:08:33;72685.00;;;-143.21;91.94
6464;BME280;3265;42.694;23.282;2023-05-20T05:11:00;72675.06;;;-143.21;91.74
6464;BME280;3265;42.694;23.282;2023-05-20T05:13:27;72673.09;;;-143.21;91.43
6464;BME280;3265;42.694;23.282;2023-05-20T05:15:57;72655.25;;;-143.21;90.46
6464;BME280;3265;42.694;23.282;2023-05-20T05:18:25;72671.09;;;-143.21;89.29
6464;BME280;3265;42.694;23.282;2023-05-20T05:20:58;72683.00;;;-143.21;88.45
6464;BME280;3265;42.694;23.282;2023-05-20T05:23:26;72690.94;;;-143.21;90.49
6464;BME280;3265;42.694;23.282;2023-05-20T05:25:53;72681.03;;;-143.21;91.34
6464;BME280;3265;42.694;23.282;2023-05-20T05:28:20;72669.13;;;-143.21;92.10
6464;BME280;3265;42.694;23.282;2023-05-20T05:30:47;72655.25;;;-143.21;91.66
6464;BME280;3265;42.694;23.282;2023-05-20T05:33:14;72639.38;;;-143.21;91.33
6464;BME280;3265;42.694;23.282;2023-05-20T05:35:41;72615.56;;;-143.21;91.11
6464;BME280;3265;42.694;23.282;2023-05-20T05:38:08;72597.72;;;-143.21;90.48
6464;BME280;3265;42.694;23.282;2023-05-20T05:40:37;72583.84;;;-143.21;89.32
6464;BME280;3265;42.694;23.282;2023-05-20T05:43:03;72565.97;;;-143.21;88.53
6464;BME280;3265;42.694;23.282;2023-05-20T05:45:30;72554.09;;;-143.21;88.02
6464;BME280;3265;42.694;23.282;2023-05-20T05:47:57;72542.19;;;-143.21;87.42
6464;BME280;3265;42.694;23.282;2023-05-20T05:50:24;72534.25;;;-143.21;86.83
6464;BME280;3265;42.694;23.282;2023-05-20T05:52:51;72520.38;;;-143.21;86.44
6464;BME280;3265;42.694;23.282;2023-05-20T05:55:18;72498.56;;;-143.21;84.71
6464;BME280;3265;42.694;23.282;2023-05-20T05:57:47;72486.66;;;-143.21;83.44
6464;BME280;3265;42.694;23.282;2023-05-20T06:00:14;72474.75;;;-143.21;83.48
6464;BME280;3265;42.694;23.282;2023-05-20T06:02:41;72472.78;;;-143.21;83.09
6464;BME280;3265;42.694;23.282;2023-05-20T06:05:09;72454.91;;;-143.21;83.07
6464;BME280;3265;42.694;23.282;2023-05-20T06:07:35;72450.97;;;-143.21;83.21
6464;BME280;3265;42.694;23.282;2023-05-20T06:10:03;72421.22;;;-143.21;82.33
6464;BME280;3265;42.694;23.282;2023-05-20T06:12:30;72413.28;;;-143.21;82.56
6464;BME280;3265;42.694;23.282;2023-05-20T06:14:58;72405.34;;;-143.21;82.19
6464;BME280;3265;42.694;23.282;2023-05-20T06:17:25;72397.41;;;-143.21;81.66
6464;BME280;3265;42.694;23.282;2023-05-20T06:19:52;72391.47;;;-143.21;81.23
6464;BME280;3265;42.694;23.282;2023-05-20T06:22:19;72385.50;;;-143.21;80.71
6464;BME280;3265;42.694;23.282;2023-05-20T06:24:45;72367.66;;;-143.21;79.59
6464;BME280;3265;42.694;23.282;2023-05-20T06:27:12;72359.72;;;-143.21;78.67
6464;BME280;3265;42.694;23.282;2023-05-20T06:29:39;72349.81;;;-143.21;78.61
6464;BME280;3265;42.694;23.282;2023-05-20T06:32:07;72331.97;;;-143.21;78.31
6464;BME280;3265;42.694;23.282;2023-05-20T06:34:34;72320.06;;;-143.21;77.82
6464;BME280;3265;42.694;23.282;2023-05-20T06:37:01;72308.16;;;-143.21;77.45
6464;BME280;3265;42.694;23.282;2023-05-20T06:39:28;72288.34;;;-143.21;75.81
6464;BME280;3265;42.694;23.282;2023-05-20T06:41:54;72278.41;;;-143.21;75.42
6464;BME280;3265;42.694;23.282;2023-05-20T06:44:21;72264.53;;;-143.21;75.64
6464;BME280;3265;42.694;23.282;2023-05-20T06:46:48;72252.63;;;-143.21;74.46
6464;BME280;3265;42.694;23.282;2023-05-20T06:49:16;72234.78;;;-143.21;74.12
6464;BME280;3265;42.694;23.282;2023-05-20T06:51:43;72216.94;;;-143.21;73.06
6464;BME280;3265;42.694;23.282;2023-05-20T06:54:10;72211.00;;;-143.21;72.99
6464;BME280;3265;42.694;23.282;2023-05-20T06:56:37;72209.00;;;-143.21;72.52
6464;BME280;3265;42.694;23.282;2023-05-20T06:59:03;72197.13;;;-143.21;72.05
6464;BME280;3265;42.694;23.282;2023-05-20T07:01:30;72191.16;;;-143.21;71.81
6464;BME280;3265;42.694;23.282;2023-05-20T07:03:57;72185.22;;;-143.21;71.63
6464;BME280;3265;42.694;23.282;2023-05-20T07:06:25;72171.34;;;-143.21;70.50
6464;BME280;3265;42.694;23.282;2023-05-20T07:08:52;72161.41;;;-143.21;70.41
6464;BME280;3265;42.694;23.282;2023-05-20T07:11:19;72139.59;;;-143.21;69.85
6464;BME280;3265;42.694;23.282;2023-05-20T07:13:45;72137.63;;;-143.21;70.26
6464;BME280;3265;42.694;23.282;2023-05-20T07:16:12;72155.47;;;-143.21;69.04
6464;BME280;3265;42.694;23.282;2023-05-20T07:18:39;72175.31;;;-143.21;68.33
6464;BME280;3265;42.694;23.282;2023-05-20T07:21:06;72169.34;;;-143.21;69.84
6464;BME280;3265;42.694;23.282;2023-05-20T07:23:34;72165.38;;;-143.21;69.69
6464;BME280;3265;42.694;23.282;2023-05-20T07:26:01;72147.53;;;-143.21;69.00
6464;BME280;3265;42.694;23.282;2023-05-20T07:28:28;72119.78;;;-143.21;68.00
6464;BME280;3265;42.694;23.282;2023-05-20T07:30:55;72097.97;;;-143.21;67.58
6464;BME280;3265;42.694;23.282;2023-05-20T07:33:22;72074.16;;;-143.21;66.43
6464;BME280;3265;42.694;23.282;2023-05-20T07:35:49;72056.31;;;-143.21;65.97
6464;BME280;3265;42.694;23.282;2023-05-20T07:38:18;72040.44;;;-143.21;65.33
6464;BME280;3265;42.694;23.282;2023-05-20T07:40:46;72034.50;;;-143.21;65.16
6464;BME280;3265;42.694;23.282;2023-05-20T07:43:13;72012.69;;;-143.21;62.44
6464;BME280;3265;42.694;23.282;2023-05-20T07:45:41;72004.75;;;-143.21;62.70
6464;BME280;3265;42.694;23.282;2023-05-20T07:48:08;72002.78;;;-143.21;62.97
6464;BME280;3265;42.694;23.282;2023-05-20T07:50:35;71990.88;;;-143.21;62.17
6464;BME280;3265;42.694;23.282;2023-05-20T07:53:02;71971.06;;;-143.21;61.23
6464;BME280;3265;42.694;23.282;2023-05-20T07:55:29;71961.13;;;-143.21;61.19
6464;BME280;3265;42.694;23.282;2023-05-20T07:57:58;71955.19;;;-143.21;59.77
6464;BME280;3265;42.694;23.282;2023-05-20T08:00:24;71949.25;;;-143.21;60.57
6464;BME280;3265;42.694;23.282;2023-05-20T08:02:51;71939.31;;;-143.21;61.07
6464;BME280;3265;42.694;23.282;2023-05-20T08:05:18;71941.31;;;-143.21;61.36
6464;BME280;3265;42.694;23.282;2023-05-20T08:07:47;71935.34;;;-143.21;61.15
6464;BME280;3265;42.694;23.282;2023-05-20T08:10:13;71921.47;;;-143.21;60.87
6464;BME280;3265;42.694;23.282;2023-05-20T08:12:40;71909.56;;;-143.21;61.01
6464;BME280;3265;42.694;23.282;2023-05-20T08:15:10;71891.72;;;-143.21;60.29
6464;BME280;3265;42.694;23.282;2023-05-20T08:17:37;71887.78;;;-143.21;60.15
6464;BME280;3265;42.694;23.282;2023-05-20T08:20:05;71879.84;;;-143.21;60.94
6464;BME280;3265;42.694;23.282;2023-05-20T08:22:32;71867.94;;;-143.21;60.01
6464;BME280;3265;42.694;23.282;2023-05-20T08:25:00;71865.97;;;-143.21;60.09
6464;BME280;3265;42.694;23.282;2023-05-20T08:27:27;71862.00;;;-143.21;59.94
6464;BME280;3265;42.694;23.282;2023-05-20T08:29:54;71856.03;;;-143.21;60.28
6464;BME280;3265;42.694;23.282;2023-05-20T08:32:22;71838.19;;;-143.21;60.83
6464;BME280;3265;42.694;23.282;2023-05-20T08:34:48;71842.16;;;-143.21;59.16
6464;BME280;3265;42.694;23.282;2023-05-20T08:37:15;71836.22;;;-143.21;59.62
6464;BME280;3265;42.694;23.282;2023-05-20T08:39:42;71826.28;;;-143.21;59.68
6464;BME280;3265;42.694;23.282;2023-05-20T08:42:11;71820.34;;;-143.21;58.58
6464;BME280;3265;42.694;23.282;2023-05-20T08:44:39;71814.41;;;-143.21;59.49
6464;BME280;3265;42.694;23.282;2023-05-20T08:47:07;71804.47;;;-143.21;59.47
6464;BME280;3265;42.694;23.282;2023-05-20T08:49:36;71796.56;;;-143.21;60.15
6464;BME280;3265;42.694;23.282;2023-05-20T08:52:03;71780.69;;;-143.21;60.00
6464;BME280;3265;42.694;23.282;2023-05-20T08:54:41;71778.72;;;-143.21;60.40
6464;BME280;3265;42.694;23.282;2023-05-20T08:57:08;71756.91;;;-143.21;58.56
6464;BME280;3265;42.694;23.282;2023-05-20T08:59:40;71758.88;;;-143.21;57.57
6464;BME280;3265;42.694;23.282;2023-05-20T09:02:08;71745.00;;;-143.21;58.05
6464;BME280;3265;42.694;23.282;2023-05-20T09:04:36;71741.03;;;-143.21;57.87
6464;BME280;3265;42.694;23.282;2023-05-20T09:07:03;71733.09;;;-143.21;58.19
6464;BME280;3265;42.694;23.282;2023-05-20T09:09:31;71711.28;;;-143.21;59.29
6464;BME280;3265;42.694;23.282;2023-05-20T09:11:59;71701.38;;;-143.21;58.10
6464;BME280;3265;42.694;23.282;2023-05-20T09:14:27;71703.34;;;-143.21;57.98
6464;BME280;3265;42.694;23.282;2023-05-20T09:16:54;71713.28;;;-143.21;58.18
6464;BME280;3265;42.694;23.282;2023-05-20T09:19:21;71701.38;;;-143.21;57.27
6464;BME280;3265;42.694;23.282;2023-05-20T09:21:51;71699.41;;;-143.21;57.87
6464;BME280;3265;42.694;23.282;2023-05-20T09:24:21;71665.69;;;-143.21;66.91
6464;BME280;3265;42.694;23.282;2023-05-20T09:26:48;71641.91;;;-143.21;62.65
6464;BME280;3265;42.694;23.282;2023-05-20T09:29:15;71663.72;;;-143.21;57.21
6464;BME280;3265;42.694;23.282;2023-05-20T09:31:44;71667.66;;;-143.21;58.27
6464;BME280;3265;42.694;23.282;2023-05-20T09:34:11;71659.75;;;-143.21;58.18
6464;BME280;3265;42.694;23.282;2023-05-20T09:36:39;71661.72;;;-143.21;57.39
6464;BME280;3265;42.694;23.282;2023-05-20T09:39:10;71655.78;;;-143.21;58.84
6464;BME280;3265;42.694;23.282;2023-05-20T09:41:51;71633.97;;;-143.21;57.92
6464;BME280;3265;42.694;23.282;2023-05-20T09:44:21;71608.19;;;-143.21;56.59
6464;BME280;3265;42.694;23.282;2023-05-20T09:46:49;71588.38;;;-143.21;56.95
6464;BME280;3265;42.694;23.282;2023-05-20T09:49:18;71574.47;;;-143.21;56.84
6464;BME280;3265;42.694;23.282;2023-05-20T09:51:46;71558.63;;;-143.21;55.51
6464;BME280;3265;42.694;23.282;2023-05-20T09:54:17;71542.75;;;-143.21;55.37
6464;BME280;3265;42.694;23.282;2023-05-20T09:56:45;71534.81;;;-143.21;54.99
6464;BME280;3265;42.694;23.282;2023-05-20T09:59:14;71511.03;;;-143.21;54.72
6464;BME280;3265;42.694;23.282;2023-05-20T10:01:43;71503.09;;;-143.21;55.01
6464;BME280;3265;42.694;23.282;2023-05-20T10:04:11;71493.19;;;-143.21;54.01
6464;BME280;3265;42.694;23.282;2023-05-20T10:09:57;71453.53;;;-143.21;53.20
6464;BME280;3265;42.694;23.282;2023-05-20T10:12:33;71431.72;;;-143.21;53.22
6464;BME280;3265;42.694;23.282;2023-05-20T10:15:11;71407.94;;;-143.21;53.10
6464;BME280;3265;42.694;23.282;2023-05-20T10:17:47;71386.13;;;-143.21;52.13
6464;BME280;3265;42.694;23.282;2023-05-20T10:20:20;71362.34;;;-143.21;51.40
6464;BME280;3265;42.694;23.282;2023-05-20T10:22:54;71354.41;;;-143.21;49.27
6464;BME280;3265;42.694;23.282;2023-05-20T10:25:27;71376.22;;;-143.21;50.37
6464;BME280;3265;42.694;23.282;2023-05-20T10:28:04;71358.38;;;-143.21;50.04
6464;BME280;3265;42.694;23.282;2023-05-20T10:30:33;71334.59;;;-143.21;49.31
6464;BME280;3265;42.694;23.282;2023-05-20T10:33:03;71316.75;;;-143.21;49.05
6464;BME280;3265;42.694;23.282;2023-05-20T10:35:30;71306.81;;;-143.21;49.06
6464;BME280;3265;42.694;23.282;2023-05-20T10:38:07;71287.00;;;-143.21;49.35
6464;BME280;3265;42.694;23.282;2023-05-20T10:40:36;71265.19;;;-143.21;48.25
6464;BME280;3265;42.694;23.282;2023-05-20T10:43:10;71288.97;;;-143.21;48.52
6464;BME280;3265;42.694;23.282;2023-05-20T10:45:47;71283.03;;;-143.21;48.88
6464;BME280;3265;42.694;23.282;2023-05-20T10:48:25;71285.03;;;-143.21;47.55
6464;BME280;3265;42.694;23.282;2023-05-20T10:50:56;71300.88;;;-143.21;47.71
6464;BME280;3265;42.694;23.282;2023-05-20T10:53:25;71292.94;;;-143.21;47.74
6464;BME280;3265;42.694;23.282;2023-05-20T10:55:53;71330.63;;;-143.21;47.78
6464;BME280;3265;42.694;23.282;2023-05-20T10:58:21;71318.72;;;-143.21;47.81
6464;BME280;3265;42.694;23.282;2023-05-20T11:00:50;71277.09;;;-143.21;47.96
6464;BME280;3265;42.694;23.282;2023-05-20T11:03:17;71261.22;;;-143.21;46.40
6464;BME280;3265;42.694;23.282;2023-05-20T11:05:47;71231.50;;;-143.21;46.95
6464;BME280;3265;42.694;23.282;2023-05-20T11:08:14;71217.59;;;-143.21;46.65
6464;BME280;3265;42.694;23.282;2023-05-20T11:10:42;71201.75;;;-143.21;45.64
6464;BME280;3265;42.694;23.282;2023-05-20T11:13:12;71195.81;;;-143.21;45.06
6464;BME280;3265;42.694;23.282;2023-05-20T11:15:41;71201.75;;;-143.21;44.71
6464;BME280;3265;42.694;23.282;2023-05-20T11:18:09;71213.66;;;-143.21;44.14
6464;BME280;3265;42.694;23.282;2023-05-20T11:20:36;71225.53;;;-143.21;45.19
6464;BME280;3265;42.694;23.282;2023-05-20T11:23:04;71239.41;;;-143.21;46.18
6464;BME280;3265;42.694;23.282;2023-05-20T11:25:32;71213.66;;;-143.21;46.61
6464;BME280;3265;42.694;23.282;2023-05-20T11:27:59;71193.81;;;-143.21;46.34
6464;BME280;3265;42.694;23.282;2023-05-20T11:30:29;71152.19;;;-143.21;46.18
6464;BME280;3265;42.694;23.282;2023-05-20T11:32:57;71104.59;;;-143.21;45.50
6464;BME280;3265;42.694;23.282;2023-05-20T11:35:26;71076.84;;;-143.21;45.43
6464;BME280;3265;42.694;23.282;2023-05-20T11:37:55;71047.13;;;-143.21;45.35
6464;BME280;3265;42.694;23.282;2023-05-20T11:40:24;71041.16;;;-143.21;43.47
6464;BME280;3265;42.694;23.282;2023-05-20T11:42:52;71023.34;;;-143.21;43.68
6464;BME280;3265;42.694;23.282;2023-05-20T11:45:19;71035.22;;;-143.21;44.04
6464;BME280;3265;42.694;23.282;2023-05-20T11:47:57;71092.72;;;-143.21;44.04
6464;BME280;3265;42.694;23.282;2023-05-20T11:50:24;71146.25;;;-143.21;44.44
6464;BME280;3265;42.694;23.282;2023-05-20T11:52:56;71174.00;;;-143.21;45.25
6464;BME280;3265;42.694;23.282;2023-05-20T11:55:22;71148.22;;;-143.21;45.38
6464;BME280;3265;42.694;23.282;2023-05-20T11:57:50;71130.38;;;-143.21;45.00
6464;BME280;3265;42.694;23.282;2023-05-20T12:00:17;71166.06;;;-143.21;45.71
6464;BME280;3265;42.694;23.282;2023-05-20T12:02:43;71144.25;;;-143.21;45.64
6464;BME280;3265;42.694;23.282;2023-05-20T12:05:12;71166.06;;;-143.21;45.86
6464;BME280;3265;42.694;23.282;2023-05-20T12:07:39;71160.13;;;-143.21;46.72
6464;BME280;3265;42.694;23.282;2023-05-20T12:10:07;71162.09;;;-143.21;45.44
6464;BME280;3265;42.694;23.282;2023-05-20T12:12:34;71150.22;;;-143.21;45.19
6464;BME280;3265;42.694;23.282;2023-05-20T12:15:01;71130.38;;;-143.21;45.64
6464;BME280;3265;42.694;23.282;2023-05-20T12:17:28;71118.50;;;-143.21;45.24
6464;BME280;3265;42.694;23.282;2023-05-20T12:19:55;71118.50;;;-143.21;44.22
6464;BME280;3265;42.694;23.282;2023-05-20T12:22:23;71098.66;;;-143.21;44.33
6464;BME280;3265;42.694;23.282;2023-05-20T12:24:50;71112.53;;;-143.21;44.55
6464;BME280;3265;42.694;23.282;2023-05-20T12:27:17;71110.56;;;-143.21;44.95
6464;BME280;3265;42.694;23.282;2023-05-20T12:29:43;71132.38;;;-143.21;44.23
6464;BME280;3265;42.694;23.282;2023-05-20T12:32:10;71106.59;;;-143.21;44.72
6464;BME280;3265;42.694;23.282;2023-05-20T12:34:37;71116.50;;;-143.21;43.27
6464;BME280;3265;42.694;23.282;2023-05-20T12:37:04;71168.06;;;-143.21;43.06
6464;BME280;3265;42.694;23.282;2023-05-20T12:39:32;71235.44;;;-143.21;43.68
6464;BME280;3265;42.694;23.282;2023-05-20T12:41:59;71265.19;;;-143.21;44.73
6464;BME280;3265;42.694;23.282;2023-05-20T12:44:26;71332.59;;;-143.21;45.98
6464;BME280;3265;42.694;23.282;2023-05-20T12:46:54;71344.50;;;-143.21;46.53
6464;BME280;3265;42.694;23.282;2023-05-20T12:49:21;71368.28;;;-143.21;46.05
6464;BME280;3265;42.694;23.282;2023-05-20T12:51:48;71386.13;;;-143.21;43.96
6464;BME280;3265;42.694;23.282;2023-05-20T12:54:16;71398.03;;;-143.21;44.19
6464;BME280;3265;42.694;23.282;2023-05-20T12:56:45;71429.75;;;-143.21;44.45